WIII/CGK METAR and TAF weather

Enter ICAO airport designator
Station Type Date Time Source
WIII METAR 2019/02/16 07:00 UTC NOAA

WIII 160700Z 31012KT 9999 FEW021 31/24 Q1010 NOSIG


Station Type Date Time Source
WIII Decoded METAR 2019/02/16 07:00 UTC NOAA

Jakarta / Soekarno-Hatta, Indonesia (WIII) 06-07S 106-39E 8M
Feb 16, 2019 - 02:00 AM EST / 2019.02.16 0700 UTC
Wind: from the NW (310 degrees) at 14 MPH (12 KT):0
Visibility: greater than 7 mile(s):0
Sky conditions: mostly clear
Temperature: 87 F (31 C)
Heat index: 95.7 F (35.4 C):1
Dew Point: 75 F (24 C)
Relative Humidity: 66%
Pressure (altimeter): 29.83 in. Hg (1010 hPa)
ob: WIII 160700Z 31012KT 9999 FEW021 31/24 Q1010 NOSIG
cycle: 7

Station Type Date Time Source
WIII TAF 2019/02/16 06:40 UTC NOAA

TAF WIII 160500Z 1606/1712 33010KT 8000 SCT020
BECMG 1613/1615 23005KT


Example: see airport list